createdAt,value
2018-03-11T00:02:19.831Z,9.40
2018-03-11T00:04:50.350Z,9.30
2018-03-11T00:07:17.866Z,9.40
2018-03-11T00:09:46.170Z,9.60
2018-03-11T00:12:13.813Z,9.60
2018-03-11T00:14:41.344Z,9.70
2018-03-11T00:17:09.807Z,9.60
2018-03-11T00:19:37.333Z,9.60
2018-03-11T00:22:04.996Z,9.60
2018-03-11T00:24:32.667Z,9.70
2018-03-11T00:27:00.426Z,9.70
2018-03-11T00:29:27.948Z,9.60
2018-03-11T00:31:56.272Z,9.70
2018-03-11T00:34:23.835Z,9.70
2018-03-11T00:36:51.653Z,9.90
2018-03-11T00:39:19.204Z,10.10
2018-03-11T00:41:47.486Z,10.30
2018-03-11T00:44:15.019Z,10.30
2018-03-11T00:46:43.550Z,10.30
2018-03-11T00:49:11.068Z,10.20
2018-03-11T00:51:39.392Z,10.20
2018-03-11T00:54:06.942Z,10.10
2018-03-11T00:56:34.493Z,10.20
2018-03-11T00:59:02.303Z,10.30
2018-03-11T01:01:30.270Z,10.40
2018-03-11T01:03:57.912Z,10.50
2018-03-11T01:06:25.495Z,10.50
2018-03-11T01:08:53.819Z,10.50
2018-03-11T01:11:21.347Z,10.50
2018-03-11T01:13:49.030Z,10.50
2018-03-11T01:16:18.653Z,10.50
2018-03-11T01:18:46.955Z,10.60
2018-03-11T01:21:14.590Z,10.60
2018-03-11T01:23:42.136Z,10.60
2018-03-11T01:26:09.734Z,10.70
2018-03-11T01:28:37.306Z,10.70
2018-03-11T01:31:04.897Z,10.60
2018-03-11T01:33:32.505Z,10.40
2018-03-11T01:36:00.048Z,10.40
2018-03-11T01:38:27.646Z,10.50
2018-03-11T01:40:55.192Z,10.40
2018-03-11T01:43:22.747Z,10.30
2018-03-11T01:45:50.376Z,10.10
2018-03-11T01:48:17.904Z,10.00
2018-03-11T01:50:45.447Z,9.90
2018-03-11T01:53:12.970Z,9.80
2018-03-11T01:55:41.459Z,9.70
2018-03-11T01:58:08.990Z,9.60
2018-03-11T02:00:36.573Z,9.60
2018-03-11T02:03:04.111Z,9.60
2018-03-11T02:05:31.663Z,9.50
2018-03-11T02:07:59.196Z,9.60
2018-03-11T02:10:26.706Z,9.60
2018-03-11T02:12:54.276Z,9.50
2018-03-11T02:15:21.794Z,9.40
2018-03-11T02:17:49.336Z,9.30
2018-03-11T02:20:17.789Z,9.20
2018-03-11T02:22:45.330Z,9.00
2018-03-11T02:25:12.838Z,8.90
2018-03-11T02:27:41.130Z,8.80
2018-03-11T02:30:08.690Z,8.80
2018-03-11T02:32:36.208Z,8.80
2018-03-11T02:35:03.751Z,8.90
2018-03-11T02:37:31.285Z,9.00
2018-03-11T02:39:58.807Z,9.00
2018-03-11T02:42:26.356Z,9.00
2018-03-11T02:44:53.878Z,9.20
2018-03-11T02:47:21.421Z,9.20
2018-03-11T02:49:48.950Z,9.10
2018-03-11T02:52:16.465Z,9.30
2018-03-11T02:54:44.010Z,9.50
2018-03-11T02:57:11.540Z,9.70
2018-03-11T02:59:39.100Z,9.90
2018-03-11T03:02:06.677Z,10.00
2018-03-11T03:04:34.952Z,10.30
2018-03-11T03:07:02.526Z,10.30
2018-03-11T03:09:30.998Z,10.40
2018-03-11T03:11:58.559Z,10.60
2018-03-11T03:14:26.086Z,10.80
2018-03-11T03:16:53.711Z,10.70
2018-03-11T03:19:21.262Z,10.60
2018-03-11T03:21:49.757Z,10.60
2018-03-11T03:24:17.309Z,10.60
2018-03-11T03:26:44.838Z,10.60
2018-03-11T03:29:12.369Z,10.60
2018-03-11T03:31:39.919Z,10.60
2018-03-11T03:34:08.442Z,10.60
2018-03-11T03:36:35.999Z,10.60
2018-03-11T03:39:03.522Z,10.60
2018-03-11T03:41:31.044Z,10.60
2018-03-11T03:43:58.619Z,10.60
2018-03-11T03:46:26.937Z,10.40
2018-03-11T03:48:54.495Z,10.40
2018-03-11T03:51:22.014Z,10.20
2018-03-11T03:53:51.300Z,9.80
2018-03-11T03:56:18.846Z,9.80
2018-03-11T03:58:46.356Z,9.70
2018-03-11T04:01:14.223Z,9.60
2018-03-11T04:03:41.744Z,9.90
2018-03-11T04:06:10.064Z,10.20
2018-03-11T04:08:38.039Z,10.20
2018-03-11T04:11:05.905Z,10.40
2018-03-11T04:13:33.465Z,10.40
2018-03-11T04:16:01.376Z,10.10
2018-03-11T04:18:31.645Z,10.20
2018-03-11T04:20:59.171Z,10.20
2018-03-11T04:23:26.701Z,10.30
2018-03-11T04:25:56.215Z,10.30
2018-03-11T04:28:23.734Z,10.60
2018-03-11T04:30:51.282Z,11.00
2018-03-11T04:33:18.798Z,11.10
2018-03-11T04:35:46.362Z,10.90
2018-03-11T04:38:13.897Z,10.50
2018-03-11T04:40:41.425Z,10.60
2018-03-11T04:43:08.971Z,10.60
2018-03-11T04:45:37.456Z,10.50
2018-03-11T04:48:05.012Z,10.30
2018-03-11T04:50:32.535Z,10.30
2018-03-11T04:53:00.131Z,10.30
2018-03-11T05:01:13.718Z,9.20
2018-03-11T05:03:41.275Z,9.20
2018-03-11T05:06:08.799Z,9.10
2018-03-11T05:08:37.095Z,9.20
2018-03-11T05:11:04.641Z,9.10
2018-03-11T05:13:33.921Z,8.90
2018-03-11T05:16:01.503Z,8.90
2018-03-11T05:18:30.750Z,8.90
2018-03-11T05:20:58.310Z,8.90
2018-03-11T05:23:25.832Z,9.00
2018-03-11T05:25:53.355Z,8.90
2018-03-11T05:28:20.910Z,8.90
2018-03-11T05:30:48.534Z,8.90
2018-03-11T05:33:16.114Z,8.90
2018-03-11T05:35:43.639Z,9.00
2018-03-11T05:38:11.231Z,8.90
2018-03-11T05:40:38.773Z,8.90
2018-03-11T05:43:06.291Z,8.90
2018-03-11T05:45:36.236Z,8.80
2018-03-11T05:48:03.758Z,8.80
2018-03-11T05:50:32.070Z,8.70
2018-03-11T05:52:59.581Z,8.70
2018-03-11T05:55:27.131Z,8.70
2018-03-11T05:57:54.673Z,8.80
2018-03-11T06:00:22.190Z,8.60
2018-03-11T06:02:49.741Z,8.70
2018-03-11T06:05:17.286Z,8.70
2018-03-11T06:07:45.603Z,8.80
2018-03-11T06:10:13.134Z,8.80
2018-03-11T06:12:40.678Z,8.80
2018-03-11T06:15:09.158Z,8.80
2018-03-11T06:17:37.434Z,8.80
2018-03-11T06:20:06.666Z,8.90
2018-03-11T06:22:34.195Z,8.80
2018-03-11T06:25:01.754Z,8.90
2018-03-11T06:27:29.303Z,8.90
2018-03-11T06:29:56.861Z,8.90
2018-03-11T06:32:24.447Z,9.00
2018-03-11T06:34:53.670Z,9.00
2018-03-11T06:37:21.232Z,9.00
2018-03-11T06:39:48.758Z,9.10
2018-03-11T06:42:16.316Z,9.00
2018-03-11T06:44:43.848Z,9.00
2018-03-11T06:47:11.554Z,9.00
2018-03-11T06:49:39.120Z,9.30
2018-03-11T06:52:06.660Z,9.40
2018-03-11T06:54:34.240Z,9.40
2018-03-11T06:57:01.783Z,9.40
2018-03-11T06:59:29.362Z,9.60
2018-03-11T07:01:56.921Z,9.80
2018-03-11T07:04:25.406Z,9.90
2018-03-11T07:06:52.965Z,10.10
2018-03-11T07:09:20.496Z,10.30
2018-03-11T07:11:48.083Z,10.40
2018-03-11T07:14:15.621Z,10.50
2018-03-11T07:16:43.140Z,10.60
2018-03-11T07:19:10.699Z,10.60
2018-03-11T07:21:38.467Z,10.60
2018-03-11T07:24:06.810Z,10.60
2018-03-11T07:26:34.351Z,10.60
2018-03-11T07:29:02.167Z,10.60
2018-03-11T07:31:29.687Z,10.70
2018-03-11T07:33:57.226Z,10.60
2018-03-11T07:36:24.771Z,10.60
2018-03-11T07:38:52.304Z,10.60
2018-03-11T07:41:19.918Z,10.50
2018-03-11T07:43:47.427Z,10.70
2018-03-11T07:46:15.771Z,10.90
2018-03-11T07:48:43.303Z,10.90
2018-03-11T07:51:10.830Z,11.00
2018-03-11T07:53:39.146Z,11.20
2018-03-11T07:56:06.671Z,11.10
2018-03-11T07:58:36.933Z,11.30
2018-03-11T08:01:05.452Z,11.30
2018-03-11T08:03:33.063Z,11.40
2018-03-11T08:06:00.591Z,11.40
2018-03-11T08:08:28.875Z,11.50
2018-03-11T08:10:56.453Z,11.40
2018-03-11T08:13:23.974Z,11.50
2018-03-11T08:15:51.523Z,11.50
2018-03-11T08:18:19.825Z,11.40
2018-03-11T08:20:49.339Z,11.30
2018-03-11T08:23:17.834Z,11.40
2018-03-11T08:25:46.331Z,11.50
2018-03-11T08:28:13.879Z,11.50
2018-03-11T08:30:41.453Z,11.40
2018-03-11T08:33:08.988Z,11.50
2018-03-11T08:35:37.489Z,11.40
2018-03-11T08:38:05.056Z,11.50
2018-03-11T08:40:33.598Z,11.70
2018-03-11T08:43:01.123Z,11.70
2018-03-11T08:45:28.678Z,11.80
2018-03-11T08:47:57.188Z,11.80
2018-03-11T08:50:25.502Z,11.80
2018-03-11T08:52:53.030Z,11.80
2018-03-11T08:55:20.598Z,11.80
2018-03-11T08:57:48.157Z,11.60
2018-03-11T09:00:15.689Z,11.60
2018-03-11T09:02:44.003Z,11.90
2018-03-11T09:05:11.538Z,11.80
2018-03-11T09:07:39.101Z,11.90
2018-03-11T09:10:06.660Z,12.10
2018-03-11T09:12:35.329Z,12.20
2018-03-11T09:15:03.635Z,11.90
2018-03-11T09:17:32.142Z,11.80
2018-03-11T09:19:59.724Z,12.20
2018-03-11T09:22:27.275Z,12.40
2018-03-11T09:24:54.827Z,12.60
2018-03-11T09:27:22.365Z,12.80
2018-03-11T09:29:49.914Z,13.00
2018-03-11T09:32:17.435Z,13.00
2018-03-11T09:34:44.966Z,13.10
2018-03-11T09:37:12.523Z,13.30
2018-03-11T09:39:40.050Z,13.50
2018-03-11T09:42:07.609Z,13.80
2018-03-11T09:44:35.148Z,14.00
2018-03-11T09:47:02.687Z,14.10
2018-03-11T09:49:30.251Z,14.10
2018-03-11T09:51:57.792Z,14.40
2018-03-11T09:54:25.360Z,14.70
2018-03-11T09:56:53.748Z,15.40
2018-03-11T09:59:21.269Z,15.40
2018-03-11T10:01:48.810Z,15.50
2018-03-11T10:04:17.298Z,15.80
2018-03-11T10:06:45.826Z,16.00
2018-03-11T10:09:14.110Z,15.60
2018-03-11T10:11:41.687Z,15.60
2018-03-11T10:14:09.210Z,15.80
2018-03-11T10:16:36.770Z,16.00
2018-03-11T10:19:06.024Z,15.90
2018-03-11T10:21:33.553Z,15.90
2018-03-11T10:24:01.116Z,15.80
2018-03-11T10:26:28.662Z,15.70
2018-03-11T10:28:56.222Z,15.80
2018-03-11T10:31:23.743Z,15.80
2018-03-11T10:33:51.306Z,16.00
2018-03-11T10:36:18.896Z,16.30
2018-03-11T10:38:46.470Z,16.60
2018-03-11T10:41:14.019Z,16.70
2018-03-11T10:43:41.550Z,16.70
2018-03-11T10:46:10.847Z,16.70
2018-03-11T10:48:38.367Z,16.70
2018-03-11T10:51:06.918Z,16.80
2018-03-11T10:53:34.445Z,16.10
2018-03-11T10:56:01.975Z,16.00
2018-03-11T10:58:29.533Z,16.40
2018-03-11T11:00:58.014Z,16.70
2018-03-11T11:03:28.532Z,16.30
2018-03-11T11:05:56.068Z,16.60
2018-03-11T11:08:23.649Z,16.70
2018-03-11T11:10:51.191Z,16.80
2018-03-11T11:13:18.743Z,16.80
2018-03-11T11:15:46.292Z,16.80
2018-03-11T11:18:13.851Z,16.90
2018-03-11T11:20:42.145Z,16.70
2018-03-11T11:23:09.702Z,16.60
2018-03-11T11:25:38.250Z,16.60
2018-03-11T11:28:05.790Z,16.70
2018-03-11T11:30:33.555Z,16.80
2018-03-11T11:33:01.081Z,16.90
2018-03-11T11:35:28.655Z,16.90
2018-03-11T11:37:56.180Z,16.40
2018-03-11T11:40:23.718Z,16.30
2018-03-11T11:42:52.045Z,16.40
2018-03-11T11:45:20.588Z,16.40
2018-03-11T11:47:48.138Z,16.40
2018-03-11T11:50:16.427Z,16.40
2018-03-11T11:52:43.976Z,16.40
2018-03-11T11:55:12.273Z,16.10
2018-03-11T11:57:39.806Z,16.10
2018-03-11T12:00:07.362Z,16.00
2018-03-11T12:02:34.897Z,15.90
2018-03-11T12:05:02.456Z,15.40
2018-03-11T12:07:29.999Z,15.30
2018-03-11T12:09:57.517Z,15.40
2018-03-11T12:12:25.073Z,15.80
2018-03-11T12:14:52.603Z,15.90
2018-03-11T12:17:20.956Z,15.80
2018-03-11T12:19:48.510Z,15.60
2018-03-11T12:22:16.103Z,15.50
2018-03-11T12:24:43.655Z,15.30
2018-03-11T12:27:11.184Z,15.50
2018-03-11T12:29:38.736Z,15.60
2018-03-11T12:32:06.267Z,15.60
2018-03-11T12:34:33.862Z,15.60
2018-03-11T12:37:01.390Z,15.20
2018-03-11T12:39:28.954Z,14.90
2018-03-11T12:41:56.714Z,15.00
2018-03-11T12:44:24.275Z,15.10
2018-03-11T12:46:51.847Z,15.30
2018-03-11T12:49:19.397Z,15.30
2018-03-11T12:51:47.906Z,15.30
2018-03-11T12:54:15.432Z,15.30
2018-03-11T12:56:43.003Z,15.20
2018-03-11T12:59:11.501Z,15.20
2018-03-11T13:01:39.029Z,15.20
2018-03-11T13:04:06.587Z,15.00
2018-03-11T13:06:34.111Z,15.00
2018-03-11T13:09:01.668Z,15.10
2018-03-11T13:11:29.189Z,15.20
2018-03-11T13:13:56.743Z,15.20
2018-03-11T13:16:24.290Z,15.20
2018-03-11T13:18:51.806Z,14.90
2018-03-11T13:21:19.368Z,14.90
2018-03-11T13:23:47.667Z,15.00
2018-03-11T13:26:15.227Z,15.00
2018-03-11T13:28:46.561Z,14.70
2018-03-11T13:31:16.862Z,14.70
2018-03-11T13:33:56.992Z,14.70
2018-03-11T13:36:24.551Z,14.60
2018-03-11T13:39:03.955Z,14.70
2018-03-11T13:41:31.514Z,14.70
2018-03-11T13:43:59.084Z,14.80
2018-03-11T13:46:38.443Z,14.80
2018-03-11T13:49:06.012Z,14.90
2018-03-11T13:51:45.312Z,15.00
2018-03-11T13:54:12.858Z,15.00
2018-03-11T13:56:40.416Z,14.90
2018-03-11T13:59:09.906Z,14.80
2018-03-11T14:01:38.220Z,14.80
2018-03-11T14:04:05.780Z,14.80
2018-03-11T14:06:33.372Z,14.80
2018-03-11T14:09:00.923Z,14.80
2018-03-11T14:11:28.478Z,14.80
2018-03-11T14:13:56.041Z,14.80
2018-03-11T14:16:24.499Z,14.50
2018-03-11T14:18:52.086Z,14.10
2018-03-11T14:21:19.718Z,13.90
2018-03-11T14:23:47.256Z,13.80
2018-03-11T14:26:14.811Z,13.90
2018-03-11T14:28:43.114Z,13.90
2018-03-11T14:31:10.682Z,13.90
2018-03-11T14:33:38.215Z,13.80
2018-03-11T14:36:05.742Z,13.60
2018-03-11T14:38:33.303Z,13.50
2018-03-11T14:41:01.604Z,13.00
2018-03-11T14:43:29.335Z,13.00
2018-03-11T14:45:57.630Z,12.90
2018-03-11T14:48:25.955Z,12.90
2018-03-11T14:50:53.485Z,12.90
2018-03-11T14:53:21.006Z,12.90
2018-03-11T14:55:48.558Z,12.80
2018-03-11T14:58:16.096Z,12.80
2018-03-11T15:00:43.667Z,12.80
2018-03-11T15:03:11.206Z,12.80
2018-03-11T15:05:38.770Z,12.70
2018-03-11T15:08:06.295Z,12.70
2018-03-11T15:10:33.822Z,12.80
2018-03-11T15:13:01.375Z,12.80
2018-03-11T15:15:30.643Z,12.70
2018-03-11T15:17:58.215Z,12.60
2018-03-11T15:20:25.742Z,12.70
2018-03-11T15:22:53.505Z,12.70
2018-03-11T15:25:21.064Z,12.70
2018-03-11T15:27:48.588Z,12.60
2018-03-11T15:30:16.921Z,12.60
2018-03-11T15:32:44.450Z,12.60
2018-03-11T15:35:12.028Z,12.70
2018-03-11T15:37:39.572Z,12.60
2018-03-11T15:40:07.140Z,12.60
2018-03-11T15:42:34.671Z,12.60
2018-03-11T15:45:02.227Z,12.50
2018-03-11T15:47:29.809Z,12.60
2018-03-11T15:49:58.331Z,12.60
2018-03-11T15:52:25.895Z,12.60
2018-03-11T15:54:53.426Z,12.60
2018-03-11T15:57:21.005Z,12.50
2018-03-11T15:59:48.541Z,12.40
2018-03-11T16:02:16.075Z,12.20
2018-03-11T16:04:45.612Z,12.20
2018-03-11T16:07:13.147Z,12.30
2018-03-11T16:09:40.708Z,12.30
2018-03-11T16:12:08.249Z,12.40
2018-03-11T16:14:35.784Z,12.40
2018-03-11T16:17:03.342Z,12.40
2018-03-11T16:19:31.652Z,12.30
2018-03-11T16:21:59.228Z,12.30
2018-03-11T16:24:28.698Z,12.10
2018-03-11T16:26:55.096Z,12.10
2018-03-11T16:29:22.676Z,12.00
2018-03-11T16:31:50.299Z,12.00
2018-03-11T16:34:19.785Z,11.90
2018-03-11T16:36:47.307Z,11.90
2018-03-11T16:39:14.875Z,11.80
2018-03-11T16:41:42.402Z,11.70
2018-03-11T16:44:09.934Z,11.70
2018-03-11T16:46:37.487Z,11.70
2018-03-11T16:49:05.017Z,11.60
2018-03-11T16:51:32.581Z,11.60
2018-03-11T16:54:01.104Z,11.70
2018-03-11T16:56:28.670Z,11.50
2018-03-11T16:58:56.208Z,11.60
2018-03-11T17:01:23.741Z,11.60
2018-03-11T17:03:51.307Z,11.50
2018-03-11T17:06:18.896Z,11.30
2018-03-11T17:08:48.408Z,11.30
2018-03-11T17:11:15.991Z,11.20
2018-03-11T17:13:45.495Z,11.30
2018-03-11T17:16:13.026Z,11.30
2018-03-11T17:18:40.654Z,11.30
2018-03-11T17:21:08.225Z,11.40
2018-03-11T17:23:35.772Z,11.40
2018-03-11T17:26:03.354Z,11.30
2018-03-11T17:28:30.870Z,11.20
2018-03-11T17:30:58.426Z,11.20
2018-03-11T17:33:26.755Z,11.10
2018-03-11T17:35:54.314Z,11.00
2018-03-11T17:38:22.057Z,11.10
2018-03-11T17:40:49.608Z,11.10
2018-03-11T17:43:17.217Z,11.10
2018-03-11T17:45:44.748Z,11.20
2018-03-11T17:48:14.264Z,11.10
2018-03-11T17:50:41.796Z,11.00
2018-03-11T17:53:09.363Z,11.00
2018-03-11T17:55:36.919Z,11.20
2018-03-11T17:58:04.436Z,11.30
2018-03-11T18:00:32.015Z,11.30
2018-03-11T18:02:59.602Z,11.30
2018-03-11T18:05:27.174Z,11.10
2018-03-11T18:07:54.775Z,11.10
2018-03-11T18:10:22.376Z,11.10
2018-03-11T18:12:50.906Z,11.20
2018-03-11T18:15:18.430Z,11.20
2018-03-11T18:17:46.075Z,11.30
2018-03-11T18:20:13.611Z,11.20
2018-03-11T18:22:41.196Z,11.20
2018-03-11T18:25:08.730Z,11.00
2018-03-11T18:27:36.261Z,11.10
2018-03-11T18:30:03.837Z,11.10
2018-03-11T18:32:32.150Z,11.10
2018-03-11T18:34:59.701Z,11.10
2018-03-11T18:37:27.265Z,11.10
2018-03-11T18:39:54.809Z,11.10
2018-03-11T18:42:22.335Z,11.00
2018-03-11T18:44:49.865Z,11.00
2018-03-11T18:47:18.859Z,10.70
2018-03-11T18:49:46.385Z,10.70
2018-03-11T18:52:13.951Z,10.70
2018-03-11T18:54:41.469Z,10.80
2018-03-11T18:57:09.043Z,10.80
2018-03-11T18:59:37.347Z,10.70
2018-03-11T19:02:04.891Z,10.70
2018-03-11T19:04:32.448Z,10.70
2018-03-11T19:07:00.067Z,10.70
2018-03-11T19:09:27.695Z,10.40
2018-03-11T19:11:55.224Z,10.40
2018-03-11T19:14:25.242Z,10.40
2018-03-11T19:16:52.955Z,10.30
2018-03-11T19:19:23.249Z,10.20
2018-03-11T19:21:50.799Z,10.20
2018-03-11T19:24:20.889Z,10.20
2018-03-11T19:26:51.454Z,10.30
2018-03-11T19:29:18.988Z,10.30
2018-03-11T19:31:47.807Z,10.20
2018-03-11T19:34:17.061Z,10.10
2018-03-11T19:36:45.356Z,10.00
2018-03-11T19:39:12.944Z,10.00
2018-03-11T19:41:40.468Z,9.90
2018-03-11T19:44:08.782Z,10.00
2018-03-11T19:46:36.335Z,10.00
2018-03-11T19:49:03.881Z,9.80
2018-03-11T19:51:31.407Z,9.80
2018-03-11T19:53:59.691Z,9.90
2018-03-11T19:56:27.238Z,9.90
2018-03-11T19:58:55.775Z,10.00
2018-03-11T20:01:24.324Z,10.00
2018-03-11T20:03:51.890Z,10.00
2018-03-11T20:06:22.112Z,9.90
2018-03-11T20:08:49.622Z,9.80
2018-03-11T20:11:17.159Z,9.70
2018-03-11T20:13:44.727Z,9.70
2018-03-11T20:16:12.249Z,9.70
2018-03-11T20:18:39.798Z,9.70
2018-03-11T20:21:07.325Z,9.60
2018-03-11T20:23:34.874Z,9.70
2018-03-11T20:26:03.338Z,9.80
2018-03-11T20:28:30.851Z,9.80
2018-03-11T20:30:59.171Z,9.70
2018-03-11T20:33:26.690Z,9.70
2018-03-11T20:35:56.260Z,9.70
2018-03-11T20:38:24.784Z,9.70
2018-03-11T20:40:52.306Z,9.70
2018-03-11T20:43:19.854Z,9.70
2018-03-11T20:45:48.143Z,9.60
2018-03-11T20:48:15.709Z,9.60
2018-03-11T20:50:44.210Z,9.60
2018-03-11T20:53:12.496Z,9.50
2018-03-11T20:55:42.033Z,9.50
2018-03-11T20:58:09.553Z,9.50
2018-03-11T21:00:37.135Z,9.40
2018-03-11T21:03:04.678Z,9.30
2018-03-11T21:05:32.321Z,9.30
2018-03-11T21:08:00.608Z,9.30
2018-03-11T21:10:28.130Z,9.20
2018-03-11T21:12:55.710Z,9.20
2018-03-11T21:15:24.007Z,9.20
2018-03-11T21:17:51.595Z,9.20
2018-03-11T21:20:22.765Z,9.20
2018-03-11T21:22:51.095Z,9.30
2018-03-11T21:25:18.627Z,9.20
2018-03-11T21:27:48.063Z,9.30
2018-03-11T21:30:27.332Z,9.30
2018-03-11T21:32:54.866Z,9.30
2018-03-11T21:35:22.426Z,9.30
2018-03-11T21:37:49.948Z,9.30
2018-03-11T21:40:17.488Z,9.30
2018-03-11T21:42:45.089Z,9.30
2018-03-11T21:45:12.715Z,9.30
2018-03-11T21:47:40.262Z,9.30
2018-03-11T21:50:07.807Z,9.10
2018-03-11T21:52:35.370Z,9.10
2018-03-11T21:55:02.886Z,9.10
2018-03-11T21:57:30.411Z,9.10
2018-03-11T22:00:00.687Z,9.00
2018-03-11T22:02:28.230Z,9.00
2018-03-11T22:04:56.097Z,9.00
2018-03-11T22:07:24.858Z,9.00
2018-03-11T22:09:53.174Z,9.00
2018-03-11T22:12:20.706Z,8.90
2018-03-11T22:14:48.230Z,9.00
2018-03-11T22:17:16.555Z,9.00
2018-03-11T22:19:44.074Z,8.90
2018-03-11T22:22:11.630Z,8.90
2018-03-11T22:24:39.168Z,8.80
2018-03-11T22:27:06.726Z,8.70
2018-03-11T22:29:34.239Z,8.70
2018-03-11T22:32:02.707Z,8.70
2018-03-11T22:34:30.255Z,8.70
2018-03-11T22:36:57.771Z,8.70
2018-03-11T22:39:25.332Z,8.70
2018-03-11T22:41:52.866Z,8.70
2018-03-11T22:44:20.419Z,8.60
2018-03-11T22:46:47.943Z,8.60
2018-03-11T22:49:16.240Z,8.60
2018-03-11T22:51:44.632Z,8.60
2018-03-11T22:54:12.187Z,8.60
2018-03-11T22:56:39.751Z,8.50
2018-03-11T22:59:07.295Z,8.50
2018-03-11T23:01:34.856Z,8.50
2018-03-11T23:04:02.391Z,8.50
2018-03-11T23:06:29.908Z,8.40
2018-03-11T23:08:57.455Z,8.40
2018-03-11T23:11:25.166Z,8.30
2018-03-11T23:13:52.727Z,8.00
2018-03-11T23:16:21.024Z,8.20
2018-03-11T23:19:02.410Z,8.10
2018-03-11T23:21:29.947Z,8.20
2018-03-11T23:23:57.459Z,8.20
2018-03-11T23:26:26.997Z,8.20
2018-03-11T23:28:54.522Z,8.20
2018-03-11T23:31:22.112Z,8.20
2018-03-11T23:33:49.616Z,8.20
2018-03-11T23:36:17.170Z,8.30
2018-03-11T23:38:44.693Z,8.30
2018-03-11T23:41:13.959Z,8.30
2018-03-11T23:43:41.506Z,8.30
2018-03-11T23:46:09.026Z,8.20
2018-03-11T23:48:37.335Z,8.40
2018-03-11T23:51:04.864Z,8.40
2018-03-11T23:53:33.179Z,8.60
2018-03-11T23:56:00.713Z,8.60
2018-03-11T23:58:28.241Z,8.60
